1J0 weather

Tri-County Airport
Bonifay, Florida, United States

Public forecast

Using degrees Fahrenheit for public forecast. Weather courtesy of forecast.io.

METAR (pilot weather report)

Report is more than 6 hours old.

Retrieved 2017/11/09 10:58 UTC (1 month ago):

K1J0 091058Z AUTO VRB04KT 8SM OVC012 17/17 A3004 RMK AO2 SLP131 T01720167 $

TAF (pilot weather forecast)

Closest forecast is Cairns AAF (Fort Rucker) Air Field, 26.4 nm (49.0 km) NNW. Retrieved 2017/12/16 00:31 UTC (2 hours ago):

TAF KOZR 160000Z 1600/1706 34006KT 9999 BKN100 QNH3016INS BECMG 1605/1606 01006KT 9999 FEW100 BKN250 QNH3020INS BECMG 1617/1618 04006KT 9999 FEW080 SCT250 QNH3024INS BECMG 1702/1703 10006KT 9999 FEW050 QNH3025INS TX12/1620Z TN02/1610Z